Time;durP1;ratioP1;P1;durP2;ratioP2;P2;SDS_P1;SDS_P2;PMS_P1;PMS_P2;Temp;Humidity;BMP_temperature;BMP_pressure;BME280_temperature;BME280_humidity;BME280_pressure;Samples;Min_cycle;Max_cycle;Signal;HPM_P1;HPM_P2
2024/01/04 00:01:35;;;;;;;6.85;5.32;;;6.10;69.40;;;;;;5119599;27;20043;-76
2024/01/04 00:04:01;;;;;;;6.93;5.20;;;6.10;69.50;;;;;;5114713;28;20028;-75
2024/01/04 00:06:27;;;;;;;6.60;5.20;;;6.10;69.60;;;;;;5128676;27;20423;-76
2024/01/04 00:08:53;;;;;;;6.70;5.00;;;6.10;69.70;;;;;;5121147;27;20057;-76
2024/01/04 00:11:18;;;;;;;6.55;4.88;;;6.10;69.70;;;;;;5133136;27;20037;-75
2024/01/04 00:13:44;;;;;;;6.80;5.00;;;6.10;69.70;;;;;;5115497;27;20025;-77
2024/01/04 00:16:11;;;;;;;5.90;4.88;;;6.10;69.70;;;;;;5125849;27;20023;-77
2024/01/04 00:18:37;;;;;;;6.05;5.00;;;6.20;69.80;;;;;;5096426;28;20382;-78
2024/01/04 00:21:03;;;;;;;7.45;5.53;;;6.20;69.80;;;;;;5109214;27;20084;-76
2024/01/04 00:23:31;;;;;;;7.35;4.93;;;6.10;69.80;;;;;;5111464;28;20485;-77
2024/01/04 00:25:57;;;;;;;6.63;5.07;;;6.20;69.90;;;;;;5127848;27;20463;-76
2024/01/04 00:28:23;;;;;;;6.78;4.97;;;6.20;70.00;;;;;;5108248;27;20032;-75
2024/01/04 00:30:49;;;;;;;6.32;4.88;;;6.20;70.00;;;;;;5121085;27;20433;-76
2024/01/04 00:33:14;;;;;;;6.47;4.70;;;6.20;70.10;;;;;;5116462;27;20027;-76
2024/01/04 00:35:40;;;;;;;6.30;5.03;;;6.20;70.10;;;;;;5121860;27;20031;-75
2024/01/04 00:38:06;;;;;;;5.78;4.63;;;6.20;70.00;;;;;;5126453;27;20380;-76
2024/01/04 00:40:33;;;;;;;6.28;4.78;;;6.20;70.00;;;;;;5124543;27;20038;-76
2024/01/04 00:42:59;;;;;;;6.57;5.18;;;6.30;70.00;;;;;;5118351;27;20023;-76
2024/01/04 00:45:25;;;;;;;5.88;4.55;;;6.20;70.00;;;;;;5122560;27;20032;-76
2024/01/04 00:47:51;;;;;;;6.80;5.00;;;6.20;70.00;;;;;;5122373;28;20526;-76
2024/01/04 00:50:16;;;;;;;6.60;4.43;;;6.20;70.10;;;;;;5113701;28;20044;-75
2024/01/04 00:52:42;;;;;;;6.05;4.63;;;6.30;70.20;;;;;;5107965;28;20115;-76
2024/01/04 00:55:08;;;;;;;5.07;4.35;;;6.30;70.20;;;;;;5111464;28;20384;-76
2024/01/04 00:57:34;;;;;;;6.53;4.28;;;6.20;70.10;;;;;;5120717;28;20043;-75
2024/01/04 01:00:00;;;;;;;4.80;4.00;;;6.30;70.20;;;;;;5112376;28;20388;-78
2024/01/04 01:02:25;;;;;;;6.13;4.20;;;6.30;70.20;;;;;;5121342;28;20047;-76
2024/01/04 01:04:51;;;;;;;5.60;4.28;;;6.30;70.20;;;;;;5134572;27;20039;-76
2024/01/04 01:07:17;;;;;;;5.20;4.40;;;6.30;70.20;;;;;;5110063;28;20031;-76
2024/01/04 01:09:43;;;;;;;5.57;4.43;;;6.30;70.10;;;;;;5114943;28;20385;-76
2024/01/04 01:12:08;;;;;;;5.93;4.47;;;6.40;70.20;;;;;;5126438;28;20042;-77
2024/01/04 01:14:34;;;;;;;5.47;4.03;;;6.30;70.20;;;;;;5125933;28;20036;-76
2024/01/04 01:17:00;;;;;;;4.97;3.90;;;6.30;70.20;;;;;;5123005;28;20422;-76
2024/01/04 01:19:26;;;;;;;5.25;4.40;;;6.30;70.30;;;;;;5126038;27;20107;-76
2024/01/04 01:21:51;;;;;;;5.78;4.50;;;6.40;70.40;;;;;;5121530;27;20031;-76
2024/01/04 01:24:17;;;;;;;5.63;4.07;;;6.40;70.40;;;;;;5120314;27;20058;-76
2024/01/04 01:26:44;;;;;;;5.57;4.65;;;6.40;70.50;;;;;;5131363;27;20477;-76
2024/01/04 01:29:10;;;;;;;6.20;4.90;;;6.30;70.40;;;;;;5118100;27;20024;-76
2024/01/04 01:31:42;;;;;;;7.07;5.15;;;6.40;70.50;;;;;;5117713;27;20107;-75
2024/01/04 01:34:08;;;;;;;5.03;4.20;;;6.40;70.60;;;;;;5107437;28;20058;-76
2024/01/04 01:36:34;;;;;;;6.15;4.57;;;6.30;70.60;;;;;;5131584;27;20054;-76
2024/01/04 01:39:00;;;;;;;5.13;4.20;;;6.40;70.70;;;;;;5124805;27;20489;-76
2024/01/04 01:41:26;;;;;;;5.18;4.45;;;6.30;70.70;;;;;;5133752;27;20106;-76
2024/01/04 01:43:52;;;;;;;5.45;4.28;;;6.30;70.70;;;;;;5120447;27;20106;-76
2024/01/04 01:46:18;;;;;;;5.82;4.65;;;6.30;70.80;;;;;;5129696;27;20465;-75
2024/01/04 01:48:44;;;;;;;5.28;4.25;;;6.30;70.80;;;;;;5114318;28;20031;-75
2024/01/04 01:51:10;;;;;;;5.50;4.25;;;6.30;70.90;;;;;;5117607;27;20035;-76
2024/01/04 01:53:37;;;;;;;5.82;4.50;;;6.30;70.90;;;;;;5108632;27;20024;-76
2024/01/04 01:56:04;;;;;;;6.32;4.20;;;6.40;71.00;;;;;;5137774;27;20080;-75
2024/01/04 01:58:30;;;;;;;5.07;4.18;;;6.40;71.00;;;;;;5129297;27;20480;-76
2024/01/04 02:00:56;;;;;;;4.28;3.75;;;6.30;71.00;;;;;;5137676;27;20083;-76
2024/01/04 02:03:22;;;;;;;5.22;4.57;;;6.30;71.00;;;;;;5103152;28;20088;-76
2024/01/04 02:05:48;;;;;;;6.07;4.22;;;6.30;71.10;;;;;;5137516;27;20075;-75
2024/01/04 02:08:14;;;;;;;5.72;4.60;;;6.30;71.10;;;;;;5131615;27;20085;-76
2024/01/04 02:10:39;;;;;;;6.35;4.47;;;6.30;71.20;;;;;;5126202;27;20066;-76
2024/01/04 02:13:05;;;;;;;6.15;4.30;;;6.30;71.20;;;;;;5121442;27;20065;-76
2024/01/04 02:15:31;;;;;;;5.70;4.63;;;6.30;71.20;;;;;;5110647;28;20035;-75
2024/01/04 02:17:57;;;;;;;5.97;4.13;;;6.30;71.30;;;;;;5107847;27;20024;-76
2024/01/04 02:20:23;;;;;;;5.60;4.28;;;6.30;71.30;;;;;;5120618;27;20035;-76
2024/01/04 02:22:51;;;;;;;5.97;4.20;;;6.40;71.30;;;;;;5116949;28;20370;-77
2024/01/04 02:25:17;;;;;;;5.68;4.07;;;6.30;71.40;;;;;;5104560;28;20023;-76
2024/01/04 02:27:43;;;;;;;5.03;4.13;;;6.30;71.30;;;;;;5116477;28;20458;-76
2024/01/04 02:30:11;;;;;;;5.13;4.00;;;6.30;71.40;;;;;;5116111;28;20026;-76
2024/01/04 02:32:37;;;;;;;5.28;4.10;;;6.40;71.40;;;;;;5116655;28;20020;-76
2024/01/04 02:35:05;;;;;;;5.25;4.30;;;6.30;71.40;;;;;;5116637;28;20028;-76
2024/01/04 02:37:31;;;;;;;5.40;4.32;;;6.40;71.50;;;;;;5112707;27;20047;-76
2024/01/04 02:39:57;;;;;;;5.65;4.10;;;6.40;71.50;;;;;;5137128;27;20024;-76
2024/01/04 02:42:23;;;;;;;5.38;3.90;;;6.40;71.50;;;;;;5136644;27;20381;-76
2024/01/04 02:44:48;;;;;;;5.40;3.90;;;6.40;71.50;;;;;;5119143;27;20038;-76
2024/01/04 02:47:14;;;;;;;5.88;3.83;;;6.40;71.60;;;;;;5127139;27;20015;-76
2024/01/04 02:49:41;;;;;;;4.32;3.92;;;6.40;71.60;;;;;;5116224;27;20080;-76
2024/01/04 02:52:07;;;;;;;4.63;3.92;;;6.40;71.60;;;;;;5116053;27;20035;-76
2024/01/04 02:54:33;;;;;;;5.45;4.15;;;6.40;71.60;;;;;;5114870;28;20024;-77
2024/01/04 02:56:58;;;;;;;4.90;4.03;;;6.40;71.60;;;;;;5116273;28;20046;-76
2024/01/04 02:59:24;;;;;;;5.78;3.78;;;6.40;71.70;;;;;;5115800;28;20036;-76
2024/01/04 03:01:50;;;;;;;3.97;3.58;;;6.40;71.70;;;;;;5115890;28;20071;-76
2024/01/04 03:04:16;;;;;;;3.88;3.38;;;6.40;71.70;;;;;;5116200;28;20024;-76
2024/01/04 03:06:42;;;;;;;5.22;3.92;;;6.40;71.70;;;;;;5114368;28;20020;-76
2024/01/04 03:09:08;;;;;;;3.97;3.58;;;6.40;71.80;;;;;;5114630;28;20020;-77
2024/01/04 03:11:34;;;;;;;4.20;3.55;;;6.40;71.70;;;;;;5114660;28;20063;-76
2024/01/04 03:14:00;;;;;;;5.63;3.88;;;6.40;71.80;;;;;;5103160;28;20028;-76
2024/01/04 03:16:27;;;;;;;5.47;3.85;;;6.40;71.80;;;;;;5101212;28;20073;-76
2024/01/04 03:18:53;;;;;;;4.57;3.83;;;6.50;71.90;;;;;;5114426;28;20027;-76
2024/01/04 03:21:18;;;;;;;5.18;4.18;;;6.40;71.90;;;;;;5114272;28;20038;-76
2024/01/04 03:23:44;;;;;;;4.82;3.78;;;6.40;71.90;;;;;;5115566;28;20023;-76
2024/01/04 03:26:10;;;;;;;5.97;3.55;;;6.40;71.90;;;;;;5114151;28;20400;-76
2024/01/04 03:28:36;;;;;;;4.63;3.75;;;6.50;72.00;;;;;;5115423;28;20027;-75
2024/01/04 03:31:01;;;;;;;4.70;3.72;;;6.50;72.00;;;;;;5115855;28;20086;-76
2024/01/04 03:33:27;;;;;;;4.60;3.70;;;6.50;72.00;;;;;;5115524;28;20030;-77
2024/01/04 03:35:53;;;;;;;5.93;3.80;;;6.50;72.00;;;;;;5114042;28;20028;-77
2024/01/04 03:38:19;;;;;;;4.00;3.40;;;6.50;72.00;;;;;;5115106;28;20035;-76
2024/01/04 03:40:44;;;;;;;4.38;3.72;;;6.50;72.10;;;;;;5115355;28;20055;-75
2024/01/04 03:43:11;;;;;;;5.20;3.80;;;6.50;72.10;;;;;;5114665;28;20180;-76
2024/01/04 03:45:37;;;;;;;5.32;3.50;;;6.50;72.20;;;;;;5115095;27;20028;-76
2024/01/04 03:48:03;;;;;;;5.57;3.60;;;6.50;72.20;;;;;;5113718;28;20030;-78
2024/01/04 03:50:29;;;;;;;3.50;3.20;;;6.50;72.50;;;;;;5115124;28;20036;-77
2024/01/04 03:52:54;;;;;;;6.38;4.07;;;6.50;72.30;;;;;;5115074;28;20104;-76
2024/01/04 03:55:20;;;;;;;4.68;3.55;;;6.50;72.30;;;;;;5114747;28;20028;-77
2024/01/04 03:57:46;;;;;;;4.90;3.40;;;6.50;72.30;;;;;;5115662;28;20416;-75
2024/01/04 04:00:12;;;;;;;4.57;3.67;;;6.50;72.20;;;;;;5114859;28;20046;-75
2024/01/04 04:02:38;;;;;;;3.97;3.20;;;6.50;72.20;;;;;;5114942;28;20093;-75
2024/01/04 04:05:05;;;;;;;3.75;3.25;;;6.60;72.20;;;;;;5114725;28;20072;-77
2024/01/04 04:07:31;;;;;;;3.65;3.10;;;6.60;72.20;;;;;;5114788;28;20032;-76
2024/01/04 04:09:57;;;;;;;4.25;3.50;;;6.60;72.20;;;;;;5113188;28;20031;-77
2024/01/04 04:12:23;;;;;;;3.70;3.22;;;6.60;72.20;;;;;;5114277;28;20110;-76
2024/01/04 04:14:49;;;;;;;3.78;3.38;;;6.50;72.20;;;;;;5114450;28;20031;-77
2024/01/04 04:17:20;;;;;;;4.97;3.13;;;6.60;72.30;;;;;;5114545;27;20020;-77
2024/01/04 04:19:46;;;;;;;3.85;3.45;;;6.60;72.30;;;;;;5114706;28;20016;-77
2024/01/04 04:22:12;;;;;;;4.35;3.63;;;6.60;72.30;;;;;;5112921;28;20118;-77
2024/01/04 04:24:38;;;;;;;4.20;3.30;;;6.60;72.30;;;;;;5113197;28;20484;-77
2024/01/04 04:27:04;;;;;;;3.80;3.20;;;6.60;72.40;;;;;;5114283;28;20107;-77
2024/01/04 04:29:29;;;;;;;4.43;3.55;;;6.60;72.40;;;;;;5114451;28;20069;-78
2024/01/04 04:31:55;;;;;;;5.30;3.70;;;6.60;72.30;;;;;;5114266;28;20034;-76
2024/01/04 04:34:21;;;;;;;6.22;3.22;;;6.60;72.40;;;;;;5125137;27;20034;-77
2024/01/04 04:36:47;;;;;;;3.80;3.15;;;6.60;72.40;;;;;;5134070;27;20461;-76
2024/01/04 04:39:13;;;;;;;5.32;3.70;;;6.60;72.40;;;;;;5131652;27;20052;-74
2024/01/04 04:41:39;;;;;;;4.25;3.28;;;6.60;72.40;;;;;;5114328;28;20023;-76
2024/01/04 04:44:05;;;;;;;6.07;3.25;;;6.60;72.50;;;;;;5126013;27;20038;-76
2024/01/04 04:46:31;;;;;;;4.30;3.53;;;6.60;72.50;;;;;;5115443;28;20027;-76
2024/01/04 04:48:58;;;;;;;6.68;3.92;;;6.60;72.50;;;;;;5115940;28;20474;-76
2024/01/04 04:51:25;;;;;;;5.07;3.20;;;6.60;72.50;;;;;;5116296;28;20035;-76
2024/01/04 04:53:51;;;;;;;4.47;3.78;;;6.60;72.60;;;;;;5123931;28;20023;-76
2024/01/04 04:56:18;;;;;;;4.10;3.55;;;6.60;72.60;;;;;;5118556;28;20027;-77
2024/01/04 04:58:43;;;;;;;3.90;3.15;;;6.60;72.60;;;;;;5116841;27;20120;-76
2024/01/04 05:01:09;;;;;;;4.20;3.00;;;6.60;72.60;;;;;;5130280;27;20103;-77
2024/01/04 05:03:36;;;;;;;3.60;3.08;;;6.60;72.60;;;;;;5128540;27;20043;-76
2024/01/04 05:06:02;;;;;;;4.53;3.20;;;6.70;72.60;;;;;;5115879;27;20046;-76
2024/01/04 05:08:27;;;;;;;3.92;3.20;;;6.70;72.60;;;;;;5136389;27;20027;-76
2024/01/04 05:10:53;;;;;;;3.97;3.28;;;6.70;72.50;;;;;;5136081;27;20060;-76
2024/01/04 05:13:19;;;;;;;4.13;3.00;;;6.70;72.50;;;;;;5117923;28;20051;-77
2024/01/04 05:15:45;;;;;;;3.75;3.35;;;6.70;72.50;;;;;;5119295;27;20425;-76
2024/01/04 05:18:10;;;;;;;3.47;3.00;;;6.70;72.50;;;;;;5099855;28;20028;-77
2024/01/04 05:20:37;;;;;;;3.70;3.30;;;6.80;72.50;;;;;;5133746;27;20114;-76
2024/01/04 05:23:03;;;;;;;3.90;3.20;;;6.70;72.40;;;;;;5100321;27;20048;-76
2024/01/04 05:25:28;;;;;;;3.67;3.25;;;6.70;72.40;;;;;;5129315;27;20028;-78
2024/01/04 05:27:54;;;;;;;4.65;3.33;;;6.70;72.50;;;;;;5117762;28;20466;-76
2024/01/04 05:30:20;;;;;;;3.60;3.15;;;6.70;72.60;;;;;;5123935;27;20035;-76
2024/01/04 05:32:46;;;;;;;4.13;3.30;;;6.70;72.60;;;;;;5119432;27;20024;-77
2024/01/04 05:35:12;;;;;;;4.03;3.47;;;6.80;72.60;;;;;;5119320;27;20031;-76
2024/01/04 05:37:39;;;;;;;4.00;3.45;;;6.70;72.60;;;;;;5124270;27;20028;-76
2024/01/04 05:40:05;;;;;;;5.50;3.72;;;6.80;72.60;;;;;;5119755;27;20031;-77
2024/01/04 05:42:31;;;;;;;4.93;3.40;;;6.70;72.60;;;;;;5130743;27;20055;-77
2024/01/04 05:44:57;;;;;;;4.53;3.67;;;6.80;72.60;;;;;;5123636;27;20091;-77
2024/01/04 05:47:22;;;;;;;4.00;3.33;;;6.70;72.60;;;;;;5136336;27;20098;-77
2024/01/04 05:49:48;;;;;;;3.50;3.20;;;6.70;72.60;;;;;;5114381;28;20027;-76
2024/01/04 05:52:14;;;;;;;3.95;3.50;;;6.70;72.60;;;;;;5120884;27;20110;-77
2024/01/04 05:54:40;;;;;;;4.05;3.30;;;6.70;72.60;;;;;;5088989;27;20081;-77
2024/01/04 05:57:06;;;;;;;3.63;3.10;;;6.80;72.70;;;;;;5128731;27;20039;-77
2024/01/04 05:59:31;;;;;;;4.70;3.58;;;6.80;72.70;;;;;;5117242;28;20067;-76
2024/01/04 06:01:57;;;;;;;4.63;3.42;;;6.80;72.70;;;;;;5125470;27;20066;-76
2024/01/04 06:04:23;;;;;;;4.07;3.33;;;6.80;72.70;;;;;;5121372;27;20070;-77
2024/01/04 06:06:49;;;;;;;3.63;3.13;;;6.80;72.70;;;;;;5135250;27;20027;-76
2024/01/04 06:09:20;;;;;;;3.45;3.15;;;6.80;72.70;;;;;;5126084;27;20431;-77
2024/01/04 06:11:46;;;;;;;4.78;3.72;;;6.80;72.70;;;;;;5137425;27;20035;-77
2024/01/04 06:14:12;;;;;;;4.13;3.30;;;6.80;72.70;;;;;;5125184;27;20102;-77
2024/01/04 06:16:38;;;;;;;4.00;3.40;;;6.80;72.80;;;;;;5135487;27;20452;-76
2024/01/04 06:19:04;;;;;;;3.28;2.97;;;6.80;72.80;;;;;;5128202;27;20028;-76
2024/01/04 06:21:30;;;;;;;3.50;3.10;;;6.80;72.80;;;;;;5125752;27;20058;-78
2024/01/04 06:23:57;;;;;;;4.68;3.17;;;6.90;72.80;;;;;;5118016;27;20058;-76
2024/01/04 06:26:24;;;;;;;4.05;3.20;;;6.90;72.80;;;;;;5124106;27;20028;-77
2024/01/04 06:28:50;;;;;;;4.35;3.40;;;6.90;72.70;;;;;;5106480;27;20140;-77
2024/01/04 06:31:16;;;;;;;4.82;3.78;;;6.90;72.80;;;;;;5116169;27;20450;-77
2024/01/04 06:33:42;;;;;;;3.72;3.30;;;7.00;72.80;;;;;;5127650;27;20125;-76
2024/01/04 06:36:08;;;;;;;5.63;3.70;;;7.00;72.80;;;;;;5117785;27;20027;-79
2024/01/04 06:38:37;;;;;;;4.70;3.60;;;6.90;72.80;;;;;;5101108;27;20023;-76
2024/01/04 06:41:03;;;;;;;4.80;3.75;;;7.00;72.80;;;;;;5131008;27;20035;-77
2024/01/04 06:43:32;;;;;;;4.50;3.55;;;7.00;72.80;;;;;;5118636;27;20102;-77
2024/01/04 06:45:58;;;;;;;4.40;3.65;;;7.00;72.80;;;;;;5115596;27;20110;-77
2024/01/04 06:48:24;;;;;;;4.32;3.63;;;7.00;72.90;;;;;;5104439;28;20157;-77
2024/01/04 06:50:50;;;;;;;4.20;3.35;;;7.00;72.80;;;;;;5116579;28;20381;-76
2024/01/04 06:53:15;;;;;;;4.32;3.30;;;7.00;73.40;;;;;;5126767;27;20075;-77
2024/01/04 06:55:42;;;;;;;4.55;3.45;;;7.00;72.80;;;;;;5116623;27;20031;-76
2024/01/04 06:58:10;;;;;;;4.95;3.50;;;7.10;72.80;;;;;;5131632;27;20031;-78
2024/01/04 07:00:36;;;;;;;4.85;3.55;;;7.10;72.80;;;;;;5118161;27;20389;-77
2024/01/04 07:03:03;;;;;;;4.90;3.72;;;7.10;72.80;;;;;;5118798;27;20044;-77
2024/01/04 07:05:30;;;;;;;4.55;3.65;;;7.10;73.40;;;;;;5132381;27;20033;-77
2024/01/04 07:07:56;;;;;;;5.38;3.50;;;7.10;72.80;;;;;;5125790;27;20084;-77
2024/01/04 07:10:22;;;;;;;4.22;3.33;;;7.20;72.80;;;;;;5131381;27;20034;-78
2024/01/04 07:12:48;;;;;;;5.13;3.63;;;7.20;72.70;;;;;;5118829;27;20023;-78
2024/01/04 07:15:13;;;;;;;6.10;4.07;;;7.20;72.70;;;;;;5115650;28;20415;-77
2024/01/04 07:17:40;;;;;;;5.32;3.88;;;7.20;72.80;;;;;;5121554;27;20035;-77
2024/01/04 07:20:06;;;;;;;5.43;3.97;;;7.30;72.70;;;;;;5117872;27;20027;-76
2024/01/04 07:22:33;;;;;;;5.32;3.70;;;7.30;72.70;;;;;;5116075;27;20106;-77
2024/01/04 07:24:59;;;;;;;4.20;3.35;;;7.30;72.80;;;;;;5102508;28;20027;-76
2024/01/04 07:27:26;;;;;;;4.38;3.30;;;7.30;72.70;;;;;;5100650;28;20024;-75
2024/01/04 07:29:51;;;;;;;4.97;3.40;;;7.30;72.80;;;;;;5133454;27;20354;-77
2024/01/04 07:32:18;;;;;;;4.43;3.45;;;7.30;72.80;;;;;;5109167;28;20042;-76
2024/01/04 07:34:45;;;;;;;4.30;3.30;;;7.30;72.70;;;;;;5126174;27;20087;-76
2024/01/04 07:37:11;;;;;;;4.80;3.92;;;7.40;72.70;;;;;;5117552;27;20042;-77
2024/01/04 07:39:37;;;;;;;4.63;3.60;;;7.40;72.60;;;;;;5111315;28;20028;-76
2024/01/04 07:42:03;;;;;;;4.35;3.80;;;7.40;72.60;;;;;;5115173;28;20381;-71
2024/01/04 07:44:29;;;;;;;4.35;3.65;;;7.40;72.60;;;;;;5115039;28;20415;-74
2024/01/04 07:46:55;;;;;;;5.80;4.00;;;7.40;72.50;;;;;;5098747;27;20020;-74
2024/01/04 07:49:21;;;;;;;4.70;3.70;;;7.40;72.60;;;;;;5135494;27;20487;-72
2024/01/04 07:51:47;;;;;;;4.55;3.58;;;7.40;72.60;;;;;;5107997;28;20031;-74
2024/01/04 07:54:12;;;;;;;5.13;4.10;;;7.40;72.50;;;;;;5116098;27;20030;-76
2024/01/04 07:56:38;;;;;;;4.32;3.55;;;7.40;72.60;;;;;;5114809;28;20023;-74
2024/01/04 07:59:04;;;;;;;4.88;3.72;;;7.40;72.60;;;;;;5112776;28;20032;-76
2024/01/04 08:01:30;;;;;;;5.20;3.88;;;7.40;72.60;;;;;;5112620;27;20038;-79
2024/01/04 08:03:56;;;;;;;4.50;3.47;;;7.50;72.70;;;;;;5114145;27;20385;-76
2024/01/04 08:06:22;;;;;;;4.97;3.75;;;7.50;72.60;;;;;;5095656;28;20035;-76
2024/01/04 08:08:47;;;;;;;3.95;3.55;;;7.50;72.60;;;;;;5115507;27;20439;-75
2024/01/04 08:11:13;;;;;;;5.50;3.70;;;7.50;72.50;;;;;;5113141;28;20044;-75
2024/01/04 08:13:40;;;;;;;4.53;3.33;;;7.60;72.60;;;;;;5115563;27;20066;-75
2024/01/04 08:16:07;;;;;;;3.92;3.38;;;7.60;72.70;;;;;;5117132;27;20035;-74
2024/01/04 08:18:35;;;;;;;4.03;3.38;;;7.60;72.50;;;;;;5097987;27;20028;-75
2024/01/04 08:21:02;;;;;;;3.67;3.15;;;7.60;72.60;;;;;;5096799;28;20449;-76
2024/01/04 08:23:28;;;;;;;3.90;3.13;;;7.60;72.50;;;;;;5112505;28;20458;-76
2024/01/04 08:25:55;;;;;;;3.92;3.28;;;7.60;72.60;;;;;;5095118;27;20035;-76
2024/01/04 08:28:21;;;;;;;4.78;3.40;;;7.70;72.50;;;;;;5094881;28;20413;-75
2024/01/04 08:30:47;;;;;;;4.00;3.10;;;7.70;72.50;;;;;;5095090;27;20040;-77
2024/01/04 08:33:12;;;;;;;3.88;3.25;;;7.80;72.50;;;;;;5096033;28;20432;-76
2024/01/04 08:35:39;;;;;;;56.63;42.50;;;7.80;72.50;;;;;;5117217;27;20491;-75
2024/01/04 08:38:06;;;;;;;142.73;119.38;;;7.90;72.70;;;;;;5094374;28;20028;-76
2024/01/04 08:40:36;;;;;;;162.85;130.20;;;7.90;72.90;;;;;;5112832;28;20027;-79
2024/01/04 08:43:03;;;;;;;83.75;65.45;;;8.00;73.00;;;;;;5110288;28;20016;-73
2024/01/04 08:45:29;;;;;;;84.85;66.65;;;8.10;73.30;;;;;;5112329;28;20032;-74
2024/01/04 08:47:54;;;;;;;77.97;62.10;;;8.10;73.30;;;;;;5097094;28;20024;-73
2024/01/04 08:50:21;;;;;;;62.97;48.03;;;8.20;73.30;;;;;;5093785;28;20032;-78
2024/01/04 08:52:47;;;;;;;56.90;45.22;;;8.20;73.10;;;;;;5111474;28;20385;-75
2024/01/04 08:55:14;;;;;;;48.15;38.08;;;8.20;73.00;;;;;;5093753;28;20377;-76
2024/01/04 08:57:39;;;;;;;45.33;34.38;;;8.20;73.00;;;;;;5093319;28;20028;-76
2024/01/04 09:00:06;;;;;;;39.17;32.20;;;8.20;73.00;;;;;;5112248;28;20359;-74
2024/01/04 09:02:32;;;;;;;38.10;29.13;;;8.20;73.00;;;;;;5112655;28;20119;-75
2024/01/04 09:04:58;;;;;;;31.77;25.42;;;8.20;72.90;;;;;;5093997;28;20517;-74
2024/01/04 09:07:26;;;;;;;30.48;22.13;;;8.20;73.50;;;;;;5093709;28;20032;-77
2024/01/04 09:09:52;;;;;;;23.40;18.27;;;8.30;73.00;;;;;;5111876;28;20024;-74
2024/01/04 09:12:18;;;;;;;21.05;16.42;;;8.30;72.90;;;;;;5111552;28;20118;-72
2024/01/04 09:14:46;;;;;;;18.60;14.55;;;8.30;72.80;;;;;;5111956;28;20141;-75
2024/01/04 09:17:12;;;;;;;14.77;11.73;;;8.30;72.80;;;;;;5091286;28;20524;-75
2024/01/04 09:19:40;;;;;;;14.45;10.52;;;8.40;72.70;;;;;;5093949;28;20645;-74
2024/01/04 09:22:07;;;;;;;10.95;8.73;;;8.40;72.60;;;;;;5113250;28;20024;-74
2024/01/04 09:24:33;;;;;;;10.45;8.40;;;8.40;72.50;;;;;;5094754;28;20024;-75
2024/01/04 09:27:00;;;;;;;10.55;7.70;;;8.50;72.50;;;;;;5093672;28;20037;-74
2024/01/04 09:29:26;;;;;;;8.68;6.55;;;8.50;72.40;;;;;;5095233;28;20028;-76
2024/01/04 09:31:52;;;;;;;8.00;5.47;;;8.50;72.40;;;;;;5095744;28;20039;-74
2024/01/04 09:34:17;;;;;;;6.22;5.18;;;8.50;72.30;;;;;;5113902;28;20027;-73
2024/01/04 09:36:43;;;;;;;6.32;5.30;;;8.50;72.30;;;;;;5095483;28;20419;-74
2024/01/04 09:39:14;;;;;;;5.70;4.72;;;8.60;72.40;;;;;;5095118;28;20453;-73
2024/01/04 09:41:44;;;;;;;6.00;4.53;;;8.60;72.30;;;;;;5116435;28;20038;-73
2024/01/04 09:44:11;;;;;;;5.00;4.00;;;8.60;72.30;;;;;;5117296;28;20027;-73
2024/01/04 09:46:38;;;;;;;5.63;4.10;;;8.60;72.30;;;;;;5099504;28;20118;-72
2024/01/04 09:49:05;;;;;;;5.00;3.90;;;8.70;72.30;;;;;;5117257;28;20081;-73
2024/01/04 09:51:39;;;;;;;5.13;3.85;;;8.70;72.20;;;;;;5098426;28;20039;-73
2024/01/04 09:54:11;;;;;;;4.30;3.57;;;8.80;72.30;;;;;;5110666;27;20031;-73
2024/01/04 09:56:42;;;;;;;4.28;3.38;;;8.80;72.20;;;;;;5123164;27;20458;-74
2024/01/04 09:59:08;;;;;;;4.43;3.72;;;8.90;72.10;;;;;;5118172;27;20140;-75
2024/01/04 10:01:37;;;;;;;3.95;3.25;;;8.90;72.00;;;;;;5097881;28;20034;-75
2024/01/04 10:04:11;;;;;;;3.83;3.38;;;8.90;72.00;;;;;;5100645;27;20457;-75
2024/01/04 10:06:39;;;;;;;4.93;4.07;;;9.00;71.90;;;;;;5115891;27;20106;-84
2024/01/04 10:09:26;;;;;;;4.05;3.15;;;9.00;71.90;;;;;;5107537;28;20032;-84
2024/01/04 10:11:58;;;;;;;4.78;3.63;;;9.00;71.80;;;;;;5089929;27;20078;-81
2024/01/04 10:14:26;;;;;;;20.08;13.55;;;9.00;71.80;;;;;;5097401;28;20023;-78
2024/01/04 10:16:52;;;;;;;22.90;15.82;;;9.10;73.90;;;;;;5081002;28;20023;-78
2024/01/04 10:19:19;;;;;;;129.95;97.22;;;9.30;77.30;;;;;;5115968;27;20027;-79
2024/01/04 10:21:45;;;;;;;210.93;159.55;;;9.60;76.50;;;;;;5115388;28;20389;-79
2024/01/04 10:24:20;;;;;;;142.20;106.07;;;9.90;75.20;;;;;;5115591;28;20077;-79
2024/01/04 10:26:57;;;;;;;119.40;93.78;;;10.10;74.50;;;;;;5115087;28;20034;-83
2024/01/04 10:29:27;;;;;;;82.78;67.78;;;10.20;74.00;;;;;;5113446;28;20024;-81
2024/01/04 10:32:03;;;;;;;90.45;71.72;;;10.30;73.60;;;;;;5115759;28;20532;-81
2024/01/04 10:34:31;;;;;;;61.95;48.83;;;10.30;73.40;;;;;;5096816;28;20052;-79
2024/01/04 10:37:09;;;;;;;60.88;47.58;;;10.30;73.20;;;;;;5116313;27;20020;-81
2024/01/04 10:39:36;;;;;;;39.17;29.55;;;10.30;73.10;;;;;;5095693;28;20072;-80
2024/01/04 10:42:02;;;;;;;40.65;30.98;;;10.30;73.00;;;;;;5115178;28;20024;-80
2024/01/04 10:44:29;;;;;;;28.23;21.35;;;10.30;72.90;;;;;;5118047;27;20121;-80
2024/01/04 10:46:59;;;;;;;24.38;19.80;;;10.30;72.80;;;;;;5098273;28;20032;-81
2024/01/04 10:49:26;;;;;;;23.42;18.27;;;10.20;72.80;;;;;;5114815;28;20032;-83
2024/01/04 10:51:54;;;;;;;22.58;16.85;;;10.20;72.80;;;;;;5114605;28;20035;-81
2024/01/04 10:54:20;;;;;;;15.95;12.50;;;10.20;72.70;;;;;;5097277;28;20536;-79
2024/01/04 10:56:47;;;;;;;14.27;9.73;;;10.20;72.70;;;;;;5099989;28;20028;-80
2024/01/04 10:59:13;;;;;;;9.68;7.20;;;10.10;72.60;;;;;;5114704;28;20028;-82
2024/01/04 11:01:41;;;;;;;14.65;9.43;;;10.10;72.60;;;;;;5114323;28;20047;-77
2024/01/04 11:04:07;;;;;;;17.00;12.13;;;10.10;73.50;;;;;;5098209;28;20081;-78
2024/01/04 11:06:40;;;;;;;19.77;12.77;;;10.20;76.00;;;;;;5092367;28;20023;-81
2024/01/04 11:09:09;;;;;;;14.98;10.30;;;10.50;77.10;;;;;;5093994;28;20118;-79
2024/01/04 11:11:35;;;;;;;14.18;9.75;;;10.70;75.90;;;;;;5095924;28;20043;-80
2024/01/04 11:14:02;;;;;;;11.40;8.48;;;10.80;74.80;;;;;;5098566;27;20031;-81
2024/01/04 11:16:49;;;;;;;11.43;8.35;;;10.90;74.30;;;;;;5097692;28;20035;-82
2024/01/04 11:19:27;;;;;;;10.70;7.82;;;10.80;74.00;;;;;;5115728;27;20030;-82
2024/01/04 11:22:01;;;;;;;10.23;7.00;;;10.80;73.80;;;;;;5115971;28;20111;-80
2024/01/04 11:24:58;;;;;;;8.88;6.45;;;10.70;73.80;;;;;;5097571;28;20027;-82
2024/01/04 11:27:26;;;;;;;8.45;5.63;;;10.60;73.70;;;;;;5115552;28;20461;-80
2024/01/04 11:29:51;;;;;;;7.47;5.28;;;10.50;73.70;;;;;;5097254;28;20114;-81
2024/01/04 11:32:18;;;;;;;6.53;4.57;;;10.40;73.70;;;;;;5116608;27;20173;-81
2024/01/04 11:34:44;;;;;;;6.82;5.05;;;10.40;73.80;;;;;;5121785;27;20031;-82
2024/01/04 11:37:11;;;;;;;5.60;4.40;;;10.30;73.80;;;;;;5117522;27;20084;-82
2024/01/04 11:40:07;;;;;;;6.20;4.50;;;10.30;73.90;;;;;;5117998;27;20131;-83
2024/01/04 11:42:39;;;;;;;;;;;10.20;73.80;;;;;;5117940;27;20061;-82
2024/01/04 11:45:13;;;;;;;5.72;3.88;;;10.20;73.90;;;;;;5117623;27;19954;-83
2024/01/04 11:47:43;;;;;;;4.53;4.00;;;10.20;73.60;;;;;;5121814;27;20039;-81
2024/01/04 11:50:16;;;;;;;6.32;3.90;;;10.10;74.20;;;;;;5113847;28;20087;-83
2024/01/04 11:52:45;;;;;;;4.17;3.40;;;10.10;73.60;;;;;;5124043;27;20083;-83
2024/01/04 11:55:22;;;;;;;4.38;3.40;;;10.00;73.50;;;;;;5117490;27;20034;-83
2024/01/04 11:57:48;;;;;;;4.68;3.45;;;10.00;73.50;;;;;;5130856;27;20047;-82
2024/01/04 12:00:17;;;;;;;5.15;3.70;;;10.00;73.60;;;;;;5113844;28;20092;-82
2024/01/04 12:02:43;;;;;;;4.88;3.50;;;9.90;73.60;;;;;;5116980;27;20069;-83
2024/01/04 12:05:09;;;;;;;5.18;3.60;;;9.90;73.60;;;;;;5113249;28;20054;-84
2024/01/04 12:07:38;;;;;;;5.15;3.92;;;9.80;73.60;;;;;;5115240;28;20024;-83
2024/01/04 12:10:04;;;;;;;3.83;3.35;;;9.80;73.70;;;;;;5114399;27;20024;-84
2024/01/04 12:12:30;;;;;;;4.05;3.40;;;9.70;73.70;;;;;;5116455;27;20036;-83
2024/01/04 12:14:55;;;;;;;5.13;3.50;;;9.70;73.70;;;;;;5113622;28;20111;-83
2024/01/04 12:17:21;;;;;;;3.70;3.00;;;9.70;73.70;;;;;;5113088;28;20043;-83
2024/01/04 12:19:48;;;;;;;5.25;3.70;;;9.60;73.70;;;;;;5129124;27;20035;-81
2024/01/04 12:22:14;;;;;;;4.85;3.53;;;9.60;73.70;;;;;;5113268;28;20122;-83
2024/01/04 12:24:42;;;;;;;3.58;3.17;;;9.60;73.70;;;;;;5114807;27;20078;-82
2024/01/04 12:27:08;;;;;;;4.50;3.50;;;9.60;73.80;;;;;;5113143;28;20032;-83
2024/01/04 12:29:34;;;;;;;3.92;3.20;;;9.60;73.80;;;;;;5113322;28;20046;-84
2024/01/04 12:32:03;;;;;;;3.95;3.13;;;9.60;73.90;;;;;;5112993;28;20027;-83
2024/01/04 12:34:29;;;;;;;5.80;3.50;;;9.60;73.90;;;;;;5114518;27;20078;-82
2024/01/04 12:37:05;;;;;;;4.03;3.38;;;9.60;73.90;;;;;;5115915;28;20028;-83
2024/01/04 12:39:31;;;;;;;4.32;3.25;;;9.60;73.90;;;;;;5089151;27;20031;-82
2024/01/04 12:41:57;;;;;;;4.03;3.28;;;9.60;73.90;;;;;;5134931;27;20031;-83
2024/01/04 12:44:24;;;;;;;4.15;3.20;;;9.60;73.80;;;;;;5116077;27;20035;-82
2024/01/04 12:46:50;;;;;;;4.40;3.33;;;9.60;73.80;;;;;;5116435;27;20476;-84
2024/01/04 12:49:16;;;;;;;3.58;3.08;;;9.60;73.70;;;;;;5112809;28;20024;-83
2024/01/04 12:51:43;;;;;;;4.32;3.38;;;9.60;73.70;;;;;;5112875;28;20050;-83